sensor_id;sensor_type;location;lat;lon;timestamp;P1;durP1;ratioP1;P2;durP2;ratioP2
74677;SDS011;63207;56.328;43.994;2022-12-04T00:01:49;3.45;;;2.60;;
74677;SDS011;63207;56.328;43.994;2022-12-04T00:04:15;3.83;;;2.80;;
74677;SDS011;63207;56.328;43.994;2022-12-04T00:06:41;3.92;;;2.80;;
74677;SDS011;63207;56.328;43.994;2022-12-04T00:09:06;3.60;;;2.80;;
74677;SDS011;63207;56.328;43.994;2022-12-04T00:11:33;3.85;;;2.88;;
74677;SDS011;63207;56.328;43.994;2022-12-04T00:13:59;4.32;;;2.92;;
74677;SDS011;63207;56.328;43.994;2022-12-04T00:16:26;4.07;;;2.80;;
74677;SDS011;63207;56.328;43.994;2022-12-04T00:18:54;4.20;;;2.97;;
74677;SDS011;63207;56.328;43.994;2022-12-04T00:21:20;4.75;;;3.15;;
74677;SDS011;63207;56.328;43.994;2022-12-04T00:23:48;4.28;;;3.00;;
74677;SDS011;63207;56.328;43.994;2022-12-04T00:26:15;3.50;;;2.83;;
74677;SDS011;63207;56.328;43.994;2022-12-04T00:29:01;3.92;;;2.67;;
74677;SDS011;63207;56.328;43.994;2022-12-04T00:31:28;3.35;;;2.70;;
74677;SDS011;63207;56.328;43.994;2022-12-04T00:33:55;3.70;;;2.88;;
74677;SDS011;63207;56.328;43.994;2022-12-04T00:36:22;3.63;;;2.92;;
74677;SDS011;63207;56.328;43.994;2022-12-04T00:38:49;3.60;;;3.00;;
74677;SDS011;63207;56.328;43.994;2022-12-04T00:41:16;3.33;;;2.50;;
74677;SDS011;63207;56.328;43.994;2022-12-04T00:43:44;3.50;;;2.53;;
74677;SDS011;63207;56.328;43.994;2022-12-04T00:46:28;3.03;;;2.60;;
74677;SDS011;63207;56.328;43.994;2022-12-04T00:48:54;3.30;;;2.47;;
74677;SDS011;63207;56.328;43.994;2022-12-04T00:51:21;3.65;;;2.67;;
74677;SDS011;63207;56.328;43.994;2022-12-04T00:53:49;4.20;;;2.90;;
74677;SDS011;63207;56.328;43.994;2022-12-04T00:56:17;3.17;;;2.88;;
74677;SDS011;63207;56.328;43.994;2022-12-04T00:58:45;3.25;;;2.60;;
74677;SDS011;63207;56.328;43.994;2022-12-04T01:01:12;3.92;;;2.58;;
74677;SDS011;63207;56.328;43.994;2022-12-04T01:03:43;3.88;;;3.10;;
74677;SDS011;63207;56.328;43.994;2022-12-04T01:06:42;3.97;;;2.92;;
74677;SDS011;63207;56.328;43.994;2022-12-04T01:09:02;4.47;;;2.80;;
74677;SDS011;63207;56.328;43.994;2022-12-04T01:11:30;3.70;;;2.90;;
74677;SDS011;63207;56.328;43.994;2022-12-04T01:13:56;4.20;;;3.00;;
74677;SDS011;63207;56.328;43.994;2022-12-04T01:16:27;3.67;;;2.80;;
74677;SDS011;63207;56.328;43.994;2022-12-04T01:18:55;3.53;;;2.88;;
74677;SDS011;63207;56.328;43.994;2022-12-04T01:21:39;4.15;;;2.90;;
74677;SDS011;63207;56.328;43.994;2022-12-04T01:24:06;3.28;;;2.60;;
74677;SDS011;63207;56.328;43.994;2022-12-04T01:26:32;3.22;;;2.83;;
74677;SDS011;63207;56.328;43.994;2022-12-04T01:28:58;3.88;;;2.78;;
74677;SDS011;63207;56.328;43.994;2022-12-04T01:31:24;3.58;;;2.88;;
74677;SDS011;63207;56.328;43.994;2022-12-04T01:36:34;3.28;;;2.80;;
74677;SDS011;63207;56.328;43.994;2022-12-04T01:39:00;4.05;;;2.92;;
74677;SDS011;63207;56.328;43.994;2022-12-04T01:41:27;4.55;;;2.83;;
74677;SDS011;63207;56.328;43.994;2022-12-04T01:44:07;3.53;;;2.50;;
74677;SDS011;63207;56.328;43.994;2022-12-04T01:46:36;4.05;;;2.78;;
74677;SDS011;63207;56.328;43.994;2022-12-04T01:49:02;4.53;;;2.80;;
74677;SDS011;63207;56.328;43.994;2022-12-04T01:51:36;3.15;;;2.70;;
74677;SDS011;63207;56.328;43.994;2022-12-04T01:54:14;3.10;;;2.80;;
74677;SDS011;63207;56.328;43.994;2022-12-04T01:56:51;3.67;;;2.80;;
74677;SDS011;63207;56.328;43.994;2022-12-04T01:59:23;3.65;;;2.83;;
74677;SDS011;63207;56.328;43.994;2022-12-04T02:01:56;4.30;;;2.80;;
74677;SDS011;63207;56.328;43.994;2022-12-04T02:04:28;3.80;;;2.85;;
74677;SDS011;63207;56.328;43.994;2022-12-04T02:06:55;3.40;;;2.70;;
74677;SDS011;63207;56.328;43.994;2022-12-04T02:09:21;3.42;;;2.72;;
74677;SDS011;63207;56.328;43.994;2022-12-04T02:11:56;3.13;;;2.67;;
74677;SDS011;63207;56.328;43.994;2022-12-04T02:14:39;4.03;;;2.80;;
74677;SDS011;63207;56.328;43.994;2022-12-04T02:17:19;4.28;;;3.00;;
74677;SDS011;63207;56.328;43.994;2022-12-04T02:25:23;4.78;;;2.90;;
74677;SDS011;63207;56.328;43.994;2022-12-04T02:30:50;3.55;;;2.50;;
74677;SDS011;63207;56.328;43.994;2022-12-04T02:33:24;4.95;;;3.00;;
74677;SDS011;63207;56.328;43.994;2022-12-04T02:35:57;3.50;;;2.60;;
74677;SDS011;63207;56.328;43.994;2022-12-04T02:38:34;3.05;;;2.35;;
74677;SDS011;63207;56.328;43.994;2022-12-04T02:43:56;3.67;;;2.70;;
74677;SDS011;63207;56.328;43.994;2022-12-04T02:46:31;4.10;;;2.70;;
74677;SDS011;63207;56.328;43.994;2022-12-04T02:51:34;3.60;;;2.60;;
74677;SDS011;63207;56.328;43.994;2022-12-04T02:54:04;3.17;;;2.58;;
74677;SDS011;63207;56.328;43.994;2022-12-04T02:56:35;4.13;;;2.83;;
74677;SDS011;63207;56.328;43.994;2022-12-04T02:59:10;3.00;;;2.70;;
74677;SDS011;63207;56.328;43.994;2022-12-04T03:01:42;3.60;;;2.70;;
74677;SDS011;63207;56.328;43.994;2022-12-04T03:04:17;3.28;;;2.60;;
74677;SDS011;63207;56.328;43.994;2022-12-04T03:06:48;3.50;;;2.55;;
74677;SDS011;63207;56.328;43.994;2022-12-04T03:09:22;4.32;;;3.15;;
74677;SDS011;63207;56.328;43.994;2022-12-04T03:12:00;3.10;;;2.47;;
74677;SDS011;63207;56.328;43.994;2022-12-04T03:14:41;3.70;;;2.60;;
74677;SDS011;63207;56.328;43.994;2022-12-04T03:17:14;3.50;;;2.40;;
74677;SDS011;63207;56.328;43.994;2022-12-04T03:19:47;3.50;;;2.83;;
74677;SDS011;63207;56.328;43.994;2022-12-04T03:22:17;3.45;;;2.65;;
74677;SDS011;63207;56.328;43.994;2022-12-04T03:24:50;4.03;;;2.65;;
74677;SDS011;63207;56.328;43.994;2022-12-04T03:30:41;3.30;;;2.63;;
74677;SDS011;63207;56.328;43.994;2022-12-04T03:33:15;3.53;;;3.00;;
74677;SDS011;63207;56.328;43.994;2022-12-04T03:38:25;4.03;;;2.78;;
74677;SDS011;63207;56.328;43.994;2022-12-04T03:41:29;3.20;;;2.47;;
74677;SDS011;63207;56.328;43.994;2022-12-04T03:44:10;4.10;;;2.70;;
74677;SDS011;63207;56.328;43.994;2022-12-04T03:52:29;3.80;;;2.50;;
74677;SDS011;63207;56.328;43.994;2022-12-04T03:55:08;3.83;;;2.97;;
74677;SDS011;63207;56.328;43.994;2022-12-04T03:57:42;3.20;;;2.80;;
74677;SDS011;63207;56.328;43.994;2022-12-04T04:02:41;3.63;;;2.80;;
74677;SDS011;63207;56.328;43.994;2022-12-04T04:05:16;4.53;;;2.72;;
74677;SDS011;63207;56.328;43.994;2022-12-04T04:07:47;3.88;;;2.90;;
74677;SDS011;63207;56.328;43.994;2022-12-04T04:10:18;3.33;;;2.50;;
74677;SDS011;63207;56.328;43.994;2022-12-04T04:12:53;3.13;;;2.80;;
74677;SDS011;63207;56.328;43.994;2022-12-04T04:15:43;3.20;;;2.53;;
74677;SDS011;63207;56.328;43.994;2022-12-04T04:18:33;4.38;;;2.63;;
74677;SDS011;63207;56.328;43.994;2022-12-04T04:21:18;3.78;;;2.85;;
74677;SDS011;63207;56.328;43.994;2022-12-04T04:24:06;3.65;;;2.60;;
74677;SDS011;63207;56.328;43.994;2022-12-04T04:26:43;3.55;;;2.55;;
74677;SDS011;63207;56.328;43.994;2022-12-04T04:29:11;3.47;;;2.80;;
74677;SDS011;63207;56.328;43.994;2022-12-04T04:34:23;3.50;;;2.70;;
74677;SDS011;63207;56.328;43.994;2022-12-04T04:37:09;4.03;;;2.95;;
74677;SDS011;63207;56.328;43.994;2022-12-04T04:39:46;3.67;;;2.90;;
74677;SDS011;63207;56.328;43.994;2022-12-04T04:42:23;3.25;;;2.55;;
74677;SDS011;63207;56.328;43.994;2022-12-04T04:45:12;3.28;;;2.60;;
74677;SDS011;63207;56.328;43.994;2022-12-04T04:48:02;3.30;;;2.75;;
74677;SDS011;63207;56.328;43.994;2022-12-04T04:50:33;3.13;;;2.63;;
74677;SDS011;63207;56.328;43.994;2022-12-04T04:53:02;3.25;;;2.70;;
74677;SDS011;63207;56.328;43.994;2022-12-04T04:55:33;2.97;;;2.65;;
74677;SDS011;63207;56.328;43.994;2022-12-04T04:58:13;4.35;;;2.70;;
74677;SDS011;63207;56.328;43.994;2022-12-04T05:01:16;3.35;;;2.63;;
74677;SDS011;63207;56.328;43.994;2022-12-04T05:03:52;3.83;;;2.70;;
74677;SDS011;63207;56.328;43.994;2022-12-04T05:06:18;3.35;;;2.47;;
74677;SDS011;63207;56.328;43.994;2022-12-04T05:08:44;4.15;;;2.88;;
74677;SDS011;63207;56.328;43.994;2022-12-04T05:11:14;3.15;;;2.63;;
74677;SDS011;63207;56.328;43.994;2022-12-04T05:13:41;3.33;;;2.70;;
74677;SDS011;63207;56.328;43.994;2022-12-04T05:16:09;4.22;;;2.70;;
74677;SDS011;63207;56.328;43.994;2022-12-04T05:18:37;3.92;;;2.75;;
74677;SDS011;63207;56.328;43.994;2022-12-04T05:21:10;3.38;;;2.72;;
74677;SDS011;63207;56.328;43.994;2022-12-04T05:23:40;3.70;;;2.80;;
74677;SDS011;63207;56.328;43.994;2022-12-04T05:26:06;4.57;;;2.92;;
74677;SDS011;63207;56.328;43.994;2022-12-04T05:28:32;3.45;;;2.50;;
74677;SDS011;63207;56.328;43.994;2022-12-04T05:30:59;2.90;;;2.42;;
74677;SDS011;63207;56.328;43.994;2022-12-04T05:33:27;3.28;;;2.80;;
74677;SDS011;63207;56.328;43.994;2022-12-04T05:38:22;4.05;;;2.90;;
74677;SDS011;63207;56.328;43.994;2022-12-04T05:40:48;3.67;;;2.78;;
74677;SDS011;63207;56.328;43.994;2022-12-04T05:43:13;3.40;;;2.70;;
74677;SDS011;63207;56.328;43.994;2022-12-04T05:45:39;3.10;;;2.60;;
74677;SDS011;63207;56.328;43.994;2022-12-04T05:48:05;3.40;;;2.72;;
74677;SDS011;63207;56.328;43.994;2022-12-04T05:50:31;3.20;;;2.45;;
74677;SDS011;63207;56.328;43.994;2022-12-04T05:52:57;4.28;;;2.60;;
74677;SDS011;63207;56.328;43.994;2022-12-04T05:55:22;3.33;;;2.67;;
74677;SDS011;63207;56.328;43.994;2022-12-04T05:57:48;3.50;;;2.70;;
74677;SDS011;63207;56.328;43.994;2022-12-04T06:00:14;3.67;;;2.67;;
74677;SDS011;63207;56.328;43.994;2022-12-04T06:02:40;3.65;;;2.80;;
74677;SDS011;63207;56.328;43.994;2022-12-04T06:05:06;3.60;;;2.80;;
74677;SDS011;63207;56.328;43.994;2022-12-04T06:07:32;3.22;;;2.83;;
74677;SDS011;63207;56.328;43.994;2022-12-04T06:09:58;3.47;;;2.67;;
74677;SDS011;63207;56.328;43.994;2022-12-04T06:12:24;3.67;;;2.85;;
74677;SDS011;63207;56.328;43.994;2022-12-04T06:14:49;3.80;;;2.92;;
74677;SDS011;63207;56.328;43.994;2022-12-04T06:17:15;3.25;;;2.65;;
74677;SDS011;63207;56.328;43.994;2022-12-04T06:19:41;3.22;;;2.72;;
74677;SDS011;63207;56.328;43.994;2022-12-04T06:22:07;4.03;;;2.80;;
74677;SDS011;63207;56.328;43.994;2022-12-04T06:24:33;3.28;;;2.58;;
74677;SDS011;63207;56.328;43.994;2022-12-04T06:26:59;3.75;;;2.80;;
74677;SDS011;63207;56.328;43.994;2022-12-04T06:29:25;3.45;;;2.78;;
74677;SDS011;63207;56.328;43.994;2022-12-04T06:31:51;4.00;;;2.78;;
74677;SDS011;63207;56.328;43.994;2022-12-04T06:34:16;5.22;;;2.88;;
74677;SDS011;63207;56.328;43.994;2022-12-04T06:36:42;4.18;;;2.83;;
74677;SDS011;63207;56.328;43.994;2022-12-04T06:39:08;3.50;;;2.58;;
74677;SDS011;63207;56.328;43.994;2022-12-04T06:41:34;3.85;;;2.70;;
74677;SDS011;63207;56.328;43.994;2022-12-04T06:44:00;4.10;;;2.88;;
74677;SDS011;63207;56.328;43.994;2022-12-04T06:46:27;4.50;;;2.80;;
74677;SDS011;63207;56.328;43.994;2022-12-04T06:48:56;3.53;;;2.70;;
74677;SDS011;63207;56.328;43.994;2022-12-04T06:51:40;4.05;;;2.70;;
74677;SDS011;63207;56.328;43.994;2022-12-04T06:54:06;4.05;;;2.80;;
74677;SDS011;63207;56.328;43.994;2022-12-04T06:56:33;3.47;;;2.67;;
74677;SDS011;63207;56.328;43.994;2022-12-04T06:59:00;3.83;;;2.67;;
74677;SDS011;63207;56.328;43.994;2022-12-04T07:01:28;3.38;;;2.60;;
74677;SDS011;63207;56.328;43.994;2022-12-04T07:03:56;3.67;;;2.60;;
74677;SDS011;63207;56.328;43.994;2022-12-04T07:08:54;4.22;;;3.15;;
74677;SDS011;63207;56.328;43.994;2022-12-04T07:11:41;3.95;;;2.90;;
74677;SDS011;63207;56.328;43.994;2022-12-04T07:14:11;3.25;;;2.38;;
74677;SDS011;63207;56.328;43.994;2022-12-04T07:16:38;3.45;;;2.88;;
74677;SDS011;63207;56.328;43.994;2022-12-04T07:19:05;3.67;;;2.80;;
74677;SDS011;63207;56.328;43.994;2022-12-04T07:21:32;4.28;;;3.17;;
74677;SDS011;63207;56.328;43.994;2022-12-04T07:23:59;3.80;;;2.50;;
74677;SDS011;63207;56.328;43.994;2022-12-04T07:26:26;3.60;;;2.75;;
74677;SDS011;63207;56.328;43.994;2022-12-04T07:28:54;3.67;;;2.70;;
74677;SDS011;63207;56.328;43.994;2022-12-04T07:31:21;3.65;;;2.70;;
74677;SDS011;63207;56.328;43.994;2022-12-04T07:33:48;3.53;;;2.80;;
74677;SDS011;63207;56.328;43.994;2022-12-04T07:36:16;4.05;;;2.70;;
74677;SDS011;63207;56.328;43.994;2022-12-04T07:38:43;3.75;;;2.70;;
74677;SDS011;63207;56.328;43.994;2022-12-04T07:41:28;3.30;;;2.60;;
74677;SDS011;63207;56.328;43.994;2022-12-04T07:43:54;4.35;;;2.90;;
74677;SDS011;63207;56.328;43.994;2022-12-04T07:46:21;4.53;;;2.90;;
74677;SDS011;63207;56.328;43.994;2022-12-04T07:48:48;3.13;;;2.55;;
74677;SDS011;63207;56.328;43.994;2022-12-04T07:51:18;3.53;;;2.70;;
74677;SDS011;63207;56.328;43.994;2022-12-04T07:53:46;3.40;;;2.72;;
74677;SDS011;63207;56.328;43.994;2022-12-04T07:56:13;3.35;;;2.67;;
74677;SDS011;63207;56.328;43.994;2022-12-04T07:58:40;4.70;;;2.80;;
74677;SDS011;63207;56.328;43.994;2022-12-04T08:03:32;3.03;;;2.70;;
74677;SDS011;63207;56.328;43.994;2022-12-04T08:05:59;3.50;;;2.70;;
74677;SDS011;63207;56.328;43.994;2022-12-04T08:08:25;2.72;;;2.40;;
74677;SDS011;63207;56.328;43.994;2022-12-04T08:10:51;3.35;;;2.60;;
74677;SDS011;63207;56.328;43.994;2022-12-04T08:13:17;3.00;;;2.70;;
74677;SDS011;63207;56.328;43.994;2022-12-04T08:15:43;3.35;;;2.47;;
74677;SDS011;63207;56.328;43.994;2022-12-04T08:18:09;3.65;;;2.60;;
74677;SDS011;63207;56.328;43.994;2022-12-04T08:20:35;3.88;;;3.05;;
74677;SDS011;63207;56.328;43.994;2022-12-04T08:23:00;4.30;;;3.30;;
74677;SDS011;63207;56.328;43.994;2022-12-04T08:25:26;2.83;;;2.20;;
74677;SDS011;63207;56.328;43.994;2022-12-04T08:27:52;3.08;;;2.55;;
74677;SDS011;63207;56.328;43.994;2022-12-04T08:30:18;4.70;;;3.08;;
74677;SDS011;63207;56.328;43.994;2022-12-04T08:32:44;3.70;;;2.58;;
74677;SDS011;63207;56.328;43.994;2022-12-04T08:35:10;3.75;;;2.70;;
74677;SDS011;63207;56.328;43.994;2022-12-04T08:37:36;3.85;;;2.80;;
74677;SDS011;63207;56.328;43.994;2022-12-04T08:40:02;3.15;;;2.67;;
74677;SDS011;63207;56.328;43.994;2022-12-04T08:42:29;3.53;;;2.65;;
74677;SDS011;63207;56.328;43.994;2022-12-04T08:44:55;3.55;;;2.88;;
74677;SDS011;63207;56.328;43.994;2022-12-04T08:47:20;3.95;;;2.60;;
74677;SDS011;63207;56.328;43.994;2022-12-04T08:49:46;3.25;;;2.47;;
74677;SDS011;63207;56.328;43.994;2022-12-04T08:52:12;4.18;;;3.00;;
74677;SDS011;63207;56.328;43.994;2022-12-04T08:54:38;3.80;;;2.60;;
74677;SDS011;63207;56.328;43.994;2022-12-04T08:57:04;4.32;;;2.97;;
74677;SDS011;63207;56.328;43.994;2022-12-04T08:59:30;3.58;;;2.72;;
74677;SDS011;63207;56.328;43.994;2022-12-04T09:01:55;3.63;;;2.67;;
74677;SDS011;63207;56.328;43.994;2022-12-04T09:04:21;3.45;;;2.80;;
74677;SDS011;63207;56.328;43.994;2022-12-04T09:06:47;3.45;;;2.80;;
74677;SDS011;63207;56.328;43.994;2022-12-04T09:09:13;3.10;;;2.70;;
74677;SDS011;63207;56.328;43.994;2022-12-04T09:11:39;3.85;;;2.60;;
74677;SDS011;63207;56.328;43.994;2022-12-04T09:14:05;4.15;;;2.95;;
74677;SDS011;63207;56.328;43.994;2022-12-04T09:16:30;3.70;;;2.97;;
74677;SDS011;63207;56.328;43.994;2022-12-04T09:18:56;3.72;;;2.60;;
74677;SDS011;63207;56.328;43.994;2022-12-04T09:21:23;3.58;;;2.72;;
74677;SDS011;63207;56.328;43.994;2022-12-04T09:23:49;3.30;;;2.47;;
74677;SDS011;63207;56.328;43.994;2022-12-04T09:26:17;3.50;;;2.70;;
74677;SDS011;63207;56.328;43.994;2022-12-04T09:28:51;3.95;;;2.70;;
74677;SDS011;63207;56.328;43.994;2022-12-04T09:31:17;4.55;;;3.08;;
74677;SDS011;63207;56.328;43.994;2022-12-04T09:33:44;3.92;;;2.83;;
74677;SDS011;63207;56.328;43.994;2022-12-04T09:36:10;3.00;;;2.60;;
74677;SDS011;63207;56.328;43.994;2022-12-04T09:38:44;3.70;;;2.78;;
74677;SDS011;63207;56.328;43.994;2022-12-04T09:50:11;3.88;;;3.08;;
74677;SDS011;63207;56.328;43.994;2022-12-04T09:55:42;3.60;;;2.67;;
74677;SDS011;63207;56.328;43.994;2022-12-04T09:58:59;3.63;;;2.35;;
74677;SDS011;63207;56.328;43.994;2022-12-04T10:01:20;3.00;;;2.63;;
74677;SDS011;63207;56.328;43.994;2022-12-04T10:03:51;3.78;;;2.60;;
74677;SDS011;63207;56.328;43.994;2022-12-04T10:06:20;2.97;;;2.65;;
74677;SDS011;63207;56.328;43.994;2022-12-04T10:09:13;3.97;;;2.85;;
74677;SDS011;63207;56.328;43.994;2022-12-04T10:23:35;3.03;;;2.47;;
74677;SDS011;63207;56.328;43.994;2022-12-04T10:26:25;2.97;;;2.58;;
74677;SDS011;63207;56.328;43.994;2022-12-04T10:28:58;4.07;;;2.53;;
74677;SDS011;63207;56.328;43.994;2022-12-04T10:31:29;3.50;;;2.80;;
74677;SDS011;63207;56.328;43.994;2022-12-04T10:34:01;3.72;;;3.08;;
74677;SDS011;63207;56.328;43.994;2022-12-04T10:37:09;4.43;;;2.55;;
74677;SDS011;63207;56.328;43.994;2022-12-04T10:39:42;3.72;;;2.53;;
74677;SDS011;63207;56.328;43.994;2022-12-04T10:45:05;2.90;;;2.55;;
74677;SDS011;63207;56.328;43.994;2022-12-04T10:47:32;2.60;;;2.33;;
74677;SDS011;63207;56.328;43.994;2022-12-04T10:49:59;3.10;;;2.60;;
74677;SDS011;63207;56.328;43.994;2022-12-04T10:52:48;3.47;;;2.70;;
74677;SDS011;63207;56.328;43.994;2022-12-04T10:55:14;3.88;;;2.70;;
74677;SDS011;63207;56.328;43.994;2022-12-04T10:57:51;3.47;;;2.72;;
74677;SDS011;63207;56.328;43.994;2022-12-04T11:02:54;3.17;;;2.53;;
74677;SDS011;63207;56.328;43.994;2022-12-04T11:07:52;3.33;;;2.47;;
74677;SDS011;63207;56.328;43.994;2022-12-04T11:10:33;3.50;;;2.70;;
74677;SDS011;63207;56.328;43.994;2022-12-04T11:13:05;3.50;;;2.80;;
74677;SDS011;63207;56.328;43.994;2022-12-04T11:15:45;4.50;;;3.20;;
74677;SDS011;63207;56.328;43.994;2022-12-04T11:18:15;3.45;;;2.60;;
74677;SDS011;63207;56.328;43.994;2022-12-04T11:20:43;3.60;;;2.70;;
74677;SDS011;63207;56.328;43.994;2022-12-04T11:23:18;3.30;;;2.75;;
74677;SDS011;63207;56.328;43.994;2022-12-04T11:25:45;3.50;;;2.38;;
74677;SDS011;63207;56.328;43.994;2022-12-04T11:28:19;3.17;;;2.60;;
74677;SDS011;63207;56.328;43.994;2022-12-04T11:30:53;3.30;;;2.60;;
74677;SDS011;63207;56.328;43.994;2022-12-04T11:33:32;3.65;;;2.88;;
74677;SDS011;63207;56.328;43.994;2022-12-04T11:36:27;3.58;;;2.58;;
74677;SDS011;63207;56.328;43.994;2022-12-04T11:39:18;3.83;;;2.70;;
74677;SDS011;63207;56.328;43.994;2022-12-04T11:44:57;4.15;;;2.70;;
74677;SDS011;63207;56.328;43.994;2022-12-04T11:47:52;4.35;;;2.70;;
74677;SDS011;63207;56.328;43.994;2022-12-04T12:01:48;4.68;;;2.95;;
74677;SDS011;63207;56.328;43.994;2022-12-04T12:04:48;4.32;;;2.60;;
74677;SDS011;63207;56.328;43.994;2022-12-04T12:09:58;3.17;;;2.70;;
74677;SDS011;63207;56.328;43.994;2022-12-04T12:21:28;3.70;;;2.65;;
74677;SDS011;63207;56.328;43.994;2022-12-04T12:29:31;4.13;;;2.90;;
74677;SDS011;63207;56.328;43.994;2022-12-04T12:38:16;3.53;;;2.40;;
74677;SDS011;63207;56.328;43.994;2022-12-04T12:40:46;3.60;;;2.40;;
74677;SDS011;63207;56.328;43.994;2022-12-04T12:43:36;3.53;;;2.58;;
74677;SDS011;63207;56.328;43.994;2022-12-04T12:46:11;3.67;;;2.70;;
74677;SDS011;63207;56.328;43.994;2022-12-04T12:51:44;4.03;;;2.45;;
74677;SDS011;63207;56.328;43.994;2022-12-04T12:57:03;4.00;;;2.75;;
74677;SDS011;63207;56.328;43.994;2022-12-04T12:59:35;3.70;;;2.65;;
74677;SDS011;63207;56.328;43.994;2022-12-04T13:02:09;4.15;;;2.85;;
74677;SDS011;63207;56.328;43.994;2022-12-04T13:04:48;3.42;;;2.72;;
74677;SDS011;63207;56.328;43.994;2022-12-04T13:09:47;4.10;;;2.60;;
74677;SDS011;63207;56.328;43.994;2022-12-04T13:12:19;3.70;;;2.90;;
74677;SDS011;63207;56.328;43.994;2022-12-04T13:14:47;3.10;;;2.38;;
74677;SDS011;63207;56.328;43.994;2022-12-04T13:19:57;2.97;;;2.47;;
74677;SDS011;63207;56.328;43.994;2022-12-04T13:28:04;3.50;;;2.70;;
74677;SDS011;63207;56.328;43.994;2022-12-04T13:36:11;3.90;;;2.70;;
74677;SDS011;63207;56.328;43.994;2022-12-04T13:41:21;3.13;;;2.33;;
74677;SDS011;63207;56.328;43.994;2022-12-04T13:44:12;3.10;;;2.60;;
74677;SDS011;63207;56.328;43.994;2022-12-04T13:49:30;3.17;;;2.50;;
74677;SDS011;63207;56.328;43.994;2022-12-04T13:52:01;3.28;;;2.53;;
74677;SDS011;63207;56.328;43.994;2022-12-04T13:54:54;2.80;;;2.47;;
74677;SDS011;63207;56.328;43.994;2022-12-04T13:57:24;3.20;;;2.47;;
74677;SDS011;63207;56.328;43.994;2022-12-04T14:00:05;3.80;;;2.60;;
74677;SDS011;63207;56.328;43.994;2022-12-04T14:02:49;3.22;;;2.28;;
74677;SDS011;63207;56.328;43.994;2022-12-04T14:05:24;3.67;;;2.60;;
74677;SDS011;63207;56.328;43.994;2022-12-04T14:08:40;3.08;;;2.58;;
74677;SDS011;63207;56.328;43.994;2022-12-04T14:11:06;3.42;;;2.67;;
74677;SDS011;63207;56.328;43.994;2022-12-04T14:13:42;3.15;;;2.55;;
74677;SDS011;63207;56.328;43.994;2022-12-04T14:16:21;3.83;;;2.50;;
74677;SDS011;63207;56.328;43.994;2022-12-04T14:18:52;3.22;;;2.38;;
74677;SDS011;63207;56.328;43.994;2022-12-04T14:21:21;4.50;;;2.90;;
74677;SDS011;63207;56.328;43.994;2022-12-04T14:23:48;4.00;;;2.75;;
74677;SDS011;63207;56.328;43.994;2022-12-04T14:26:23;4.18;;;3.20;;
74677;SDS011;63207;56.328;43.994;2022-12-04T14:31:52;4.72;;;3.03;;
74677;SDS011;63207;56.328;43.994;2022-12-04T14:34:23;4.85;;;3.83;;
74677;SDS011;63207;56.328;43.994;2022-12-04T14:36:54;4.93;;;3.72;;
74677;SDS011;63207;56.328;43.994;2022-12-04T14:39:31;4.30;;;3.08;;
74677;SDS011;63207;56.328;43.994;2022-12-04T14:42:03;5.25;;;3.58;;
74677;SDS011;63207;56.328;43.994;2022-12-04T14:44:50;6.28;;;3.95;;
74677;SDS011;63207;56.328;43.994;2022-12-04T14:49:52;6.65;;;4.10;;
74677;SDS011;63207;56.328;43.994;2022-12-04T14:58:16;6.97;;;3.85;;
74677;SDS011;63207;56.328;43.994;2022-12-04T15:01:05;6.80;;;4.20;;
74677;SDS011;63207;56.328;43.994;2022-12-04T15:03:44;7.07;;;4.10;;
74677;SDS011;63207;56.328;43.994;2022-12-04T15:06:18;5.10;;;3.80;;
74677;SDS011;63207;56.328;43.994;2022-12-04T15:08:54;6.97;;;4.00;;
74677;SDS011;63207;56.328;43.994;2022-12-04T15:11:47;6.68;;;4.32;;
74677;SDS011;63207;56.328;43.994;2022-12-04T15:17:07;6.22;;;4.43;;
74677;SDS011;63207;56.328;43.994;2022-12-04T15:19:38;6.88;;;3.90;;
74677;SDS011;63207;56.328;43.994;2022-12-04T15:22:04;5.80;;;3.47;;
74677;SDS011;63207;56.328;43.994;2022-12-04T15:24:36;5.60;;;3.80;;
74677;SDS011;63207;56.328;43.994;2022-12-04T15:27:02;7.05;;;4.40;;
74677;SDS011;63207;56.328;43.994;2022-12-04T15:29:30;6.22;;;3.50;;
74677;SDS011;63207;56.328;43.994;2022-12-04T15:32:00;7.00;;;3.97;;
74677;SDS011;63207;56.328;43.994;2022-12-04T15:34:37;7.20;;;3.80;;
74677;SDS011;63207;56.328;43.994;2022-12-04T15:37:21;7.10;;;3.90;;
74677;SDS011;63207;56.328;43.994;2022-12-04T15:39:47;5.80;;;3.42;;
74677;SDS011;63207;56.328;43.994;2022-12-04T15:47:32;6.40;;;4.00;;
74677;SDS011;63207;56.328;43.994;2022-12-04T15:52:35;7.43;;;3.95;;
74677;SDS011;63207;56.328;43.994;2022-12-04T15:55:05;5.40;;;4.03;;
74677;SDS011;63207;56.328;43.994;2022-12-04T15:57:36;5.60;;;3.85;;
74677;SDS011;63207;56.328;43.994;2022-12-04T16:00:22;5.93;;;4.15;;
74677;SDS011;63207;56.328;43.994;2022-12-04T16:02:54;5.40;;;3.88;;
74677;SDS011;63207;56.328;43.994;2022-12-04T16:10:31;5.60;;;4.20;;
74677;SDS011;63207;56.328;43.994;2022-12-04T16:13:00;6.93;;;3.90;;
74677;SDS011;63207;56.328;43.994;2022-12-04T16:15:36;5.22;;;4.10;;
74677;SDS011;63207;56.328;43.994;2022-12-04T16:18:04;5.88;;;3.70;;
74677;SDS011;63207;56.328;43.994;2022-12-04T16:20:35;5.50;;;3.85;;
74677;SDS011;63207;56.328;43.994;2022-12-04T16:23:02;6.63;;;3.90;;
74677;SDS011;63207;56.328;43.994;2022-12-04T16:25:29;5.78;;;3.75;;
74677;SDS011;63207;56.328;43.994;2022-12-04T16:27:59;5.43;;;4.05;;
74677;SDS011;63207;56.328;43.994;2022-12-04T16:30:26;5.63;;;3.95;;
74677;SDS011;63207;56.328;43.994;2022-12-04T16:32:54;5.10;;;3.90;;
74677;SDS011;63207;56.328;43.994;2022-12-04T16:35:20;5.72;;;3.97;;
74677;SDS011;63207;56.328;43.994;2022-12-04T16:37:46;5.45;;;3.60;;
74677;SDS011;63207;56.328;43.994;2022-12-04T16:40:12;6.95;;;3.90;;
74677;SDS011;63207;56.328;43.994;2022-12-04T16:42:39;5.00;;;3.58;;
74677;SDS011;63207;56.328;43.994;2022-12-04T16:45:27;6.13;;;3.88;;
74677;SDS011;63207;56.328;43.994;2022-12-04T16:47:53;5.88;;;3.70;;
74677;SDS011;63207;56.328;43.994;2022-12-04T16:50:19;6.53;;;4.10;;
74677;SDS011;63207;56.328;43.994;2022-12-04T16:52:45;4.93;;;3.33;;
74677;SDS011;63207;56.328;43.994;2022-12-04T16:55:18;5.63;;;3.70;;
74677;SDS011;63207;56.328;43.994;2022-12-04T16:57:46;5.78;;;3.72;;
74677;SDS011;63207;56.328;43.994;2022-12-04T17:00:13;6.10;;;3.70;;
74677;SDS011;63207;56.328;43.994;2022-12-04T17:02:40;5.68;;;3.47;;
74677;SDS011;63207;56.328;43.994;2022-12-04T17:05:09;7.38;;;4.00;;
74677;SDS011;63207;56.328;43.994;2022-12-04T17:07:44;5.78;;;3.97;;
74677;SDS011;63207;56.328;43.994;2022-12-04T17:10:10;6.13;;;4.25;;
74677;SDS011;63207;56.328;43.994;2022-12-04T17:12:39;6.00;;;4.13;;
74677;SDS011;63207;56.328;43.994;2022-12-04T17:15:06;5.50;;;3.70;;
74677;SDS011;63207;56.328;43.994;2022-12-04T17:17:34;6.05;;;4.00;;
74677;SDS011;63207;56.328;43.994;2022-12-04T17:20:00;5.68;;;3.60;;
74677;SDS011;63207;56.328;43.994;2022-12-04T17:22:28;7.38;;;3.80;;
74677;SDS011;63207;56.328;43.994;2022-12-04T17:24:55;4.68;;;3.78;;
74677;SDS011;63207;56.328;43.994;2022-12-04T17:27:22;5.43;;;4.00;;
74677;SDS011;63207;56.328;43.994;2022-12-04T17:29:47;7.00;;;3.80;;
74677;SDS011;63207;56.328;43.994;2022-12-04T17:32:13;6.80;;;4.05;;
74677;SDS011;63207;56.328;43.994;2022-12-04T17:34:39;6.38;;;3.75;;
74677;SDS011;63207;56.328;43.994;2022-12-04T17:37:06;5.32;;;3.92;;
74677;SDS011;63207;56.328;43.994;2022-12-04T17:39:31;6.70;;;4.10;;
74677;SDS011;63207;56.328;43.994;2022-12-04T17:41:57;4.68;;;3.45;;
74677;SDS011;63207;56.328;43.994;2022-12-04T17:44:23;5.68;;;3.58;;